sensor_id;sensor_type;location;lat;lon;timestamp;P1;durP1;ratioP1;P2;durP2;ratioP2
16179;SDS011;8196;49.428;10.906;2022-09-13T00:00:49;8.75;;;7.90;;
16179;SDS011;8196;49.428;10.906;2022-09-13T00:03:16;9.32;;;8.15;;
16179;SDS011;8196;49.428;10.906;2022-09-13T00:05:44;10.60;;;8.82;;
16179;SDS011;8196;49.428;10.906;2022-09-13T00:08:11;10.75;;;9.50;;
16179;SDS011;8196;49.428;10.906;2022-09-13T00:10:38;11.95;;;10.10;;
16179;SDS011;8196;49.428;10.906;2022-09-13T00:13:06;15.02;;;9.75;;
16179;SDS011;8196;49.428;10.906;2022-09-13T00:15:34;10.63;;;8.77;;
16179;SDS011;8196;49.428;10.906;2022-09-13T00:18:01;9.35;;;8.45;;
16179;SDS011;8196;49.428;10.906;2022-09-13T00:20:28;8.85;;;7.80;;
16179;SDS011;8196;49.428;10.906;2022-09-13T00:22:55;8.63;;;7.72;;
16179;SDS011;8196;49.428;10.906;2022-09-13T00:25:22;9.18;;;8.13;;
16179;SDS011;8196;49.428;10.906;2022-09-13T00:27:49;9.25;;;8.35;;
16179;SDS011;8196;49.428;10.906;2022-09-13T00:30:16;10.75;;;8.40;;
16179;SDS011;8196;49.428;10.906;2022-09-13T00:32:43;10.30;;;8.75;;
16179;SDS011;8196;49.428;10.906;2022-09-13T00:35:10;10.88;;;8.82;;
16179;SDS011;8196;49.428;10.906;2022-09-13T00:37:37;9.68;;;8.70;;
16179;SDS011;8196;49.428;10.906;2022-09-13T00:40:04;9.35;;;8.45;;
16179;SDS011;8196;49.428;10.906;2022-09-13T00:42:32;9.07;;;8.17;;
16179;SDS011;8196;49.428;10.906;2022-09-13T00:45:07;9.23;;;8.20;;
16179;SDS011;8196;49.428;10.906;2022-09-13T00:47:46;8.88;;;7.93;;
16179;SDS011;8196;49.428;10.906;2022-09-13T00:50:20;8.57;;;7.75;;
16179;SDS011;8196;49.428;10.906;2022-09-13T00:52:50;8.30;;;7.50;;
16179;SDS011;8196;49.428;10.906;2022-09-13T00:55:25;8.70;;;7.78;;
16179;SDS011;8196;49.428;10.906;2022-09-13T00:57:59;8.52;;;7.72;;
16179;SDS011;8196;49.428;10.906;2022-09-13T01:00:30;8.52;;;7.80;;
16179;SDS011;8196;49.428;10.906;2022-09-13T01:02:59;8.67;;;7.87;;
16179;SDS011;8196;49.428;10.906;2022-09-13T01:05:29;10.27;;;8.27;;
16179;SDS011;8196;49.428;10.906;2022-09-13T01:08:01;7.97;;;7.15;;
16179;SDS011;8196;49.428;10.906;2022-09-13T01:10:35;8.20;;;7.35;;
16179;SDS011;8196;49.428;10.906;2022-09-13T01:13:05;8.82;;;7.93;;
16179;SDS011;8196;49.428;10.906;2022-09-13T01:15:40;8.02;;;7.30;;
16179;SDS011;8196;49.428;10.906;2022-09-13T01:18:07;7.78;;;6.97;;
16179;SDS011;8196;49.428;10.906;2022-09-13T01:31:56;9.50;;;7.85;;
16179;SDS011;8196;49.428;10.906;2022-09-13T01:34:51;8.40;;;7.60;;
16179;SDS011;8196;49.428;10.906;2022-09-13T01:37:40;8.25;;;7.40;;
16179;SDS011;8196;49.428;10.906;2022-09-13T01:43:31;8.40;;;7.40;;
16179;SDS011;8196;49.428;10.906;2022-09-13T01:46:03;9.40;;;7.72;;
16179;SDS011;8196;49.428;10.906;2022-09-13T02:01:11;9.00;;;8.10;;
16179;SDS011;8196;49.428;10.906;2022-09-13T02:03:46;8.80;;;8.00;;
16179;SDS011;8196;49.428;10.906;2022-09-13T02:06:22;8.93;;;8.05;;
16179;SDS011;8196;49.428;10.906;2022-09-13T02:11:20;8.40;;;7.60;;
16179;SDS011;8196;49.428;10.906;2022-09-13T02:13:50;9.50;;;8.60;;
16179;SDS011;8196;49.428;10.906;2022-09-13T02:16:20;8.38;;;7.45;;
16179;SDS011;8196;49.428;10.906;2022-09-13T02:18:53;9.07;;;6.70;;
16179;SDS011;8196;49.428;10.906;2022-09-13T02:21:23;7.95;;;6.53;;
16179;SDS011;8196;49.428;10.906;2022-09-13T02:23:54;8.93;;;7.23;;
16179;SDS011;8196;49.428;10.906;2022-09-13T02:26:24;7.80;;;7.00;;
16179;SDS011;8196;49.428;10.906;2022-09-13T02:28:51;8.25;;;7.45;;
16179;SDS011;8196;49.428;10.906;2022-09-13T02:31:23;8.30;;;7.50;;
16179;SDS011;8196;49.428;10.906;2022-09-13T02:33:54;8.60;;;7.80;;
16179;SDS011;8196;49.428;10.906;2022-09-13T02:36:23;8.50;;;7.70;;
16179;SDS011;8196;49.428;10.906;2022-09-13T02:38:59;8.45;;;7.65;;
16179;SDS011;8196;49.428;10.906;2022-09-13T02:41:32;9.85;;;8.02;;
16179;SDS011;8196;49.428;10.906;2022-09-13T02:44:04;7.80;;;7.10;;
16179;SDS011;8196;49.428;10.906;2022-09-13T02:54:04;9.20;;;7.05;;
16179;SDS011;8196;49.428;10.906;2022-09-13T02:59:18;8.40;;;7.60;;
16179;SDS011;8196;49.428;10.906;2022-09-13T03:01:47;9.00;;;8.10;;
16179;SDS011;8196;49.428;10.906;2022-09-13T03:04:15;8.17;;;7.37;;
16179;SDS011;8196;49.428;10.906;2022-09-13T03:06:42;7.82;;;7.03;;
16179;SDS011;8196;49.428;10.906;2022-09-13T03:09:09;8.33;;;7.53;;
16179;SDS011;8196;49.428;10.906;2022-09-13T03:14:42;7.10;;;6.50;;
16179;SDS011;8196;49.428;10.906;2022-09-13T03:17:16;7.47;;;6.68;;
16179;SDS011;8196;49.428;10.906;2022-09-13T03:25:05;7.97;;;6.38;;
16179;SDS011;8196;49.428;10.906;2022-09-13T03:27:40;7.60;;;6.50;;
16179;SDS011;8196;49.428;10.906;2022-09-13T03:30:11;8.10;;;7.32;;
16179;SDS011;8196;49.428;10.906;2022-09-13T03:35:12;11.05;;;7.97;;
16179;SDS011;8196;49.428;10.906;2022-09-13T03:40:16;8.55;;;7.65;;
16179;SDS011;8196;49.428;10.906;2022-09-13T03:45:30;8.38;;;7.57;;
16179;SDS011;8196;49.428;10.906;2022-09-13T03:47:59;8.18;;;7.38;;
16179;SDS011;8196;49.428;10.906;2022-09-13T03:50:27;8.52;;;7.72;;
16179;SDS011;8196;49.428;10.906;2022-09-13T03:52:59;9.53;;;8.20;;
16179;SDS011;8196;49.428;10.906;2022-09-13T03:55:27;10.15;;;7.60;;
16179;SDS011;8196;49.428;10.906;2022-09-13T03:57:55;8.88;;;7.97;;
16179;SDS011;8196;49.428;10.906;2022-09-13T04:00:22;9.07;;;7.90;;
16179;SDS011;8196;49.428;10.906;2022-09-13T04:02:49;8.70;;;7.80;;
16179;SDS011;8196;49.428;10.906;2022-09-13T04:05:16;8.30;;;7.50;;
16179;SDS011;8196;49.428;10.906;2022-09-13T04:07:44;8.80;;;7.85;;
16179;SDS011;8196;49.428;10.906;2022-09-13T04:10:11;8.27;;;7.38;;
16179;SDS011;8196;49.428;10.906;2022-09-13T04:12:39;8.23;;;7.45;;
16179;SDS011;8196;49.428;10.906;2022-09-13T04:15:06;8.88;;;7.40;;
16179;SDS011;8196;49.428;10.906;2022-09-13T04:17:34;8.45;;;7.63;;
16179;SDS011;8196;49.428;10.906;2022-09-13T04:20:02;8.83;;;8.03;;
16179;SDS011;8196;49.428;10.906;2022-09-13T04:22:30;9.75;;;8.40;;
16179;SDS011;8196;49.428;10.906;2022-09-13T04:24:59;9.32;;;8.43;;
16179;SDS011;8196;49.428;10.906;2022-09-13T04:27:28;9.68;;;8.68;;
16179;SDS011;8196;49.428;10.906;2022-09-13T04:29:55;9.27;;;8.38;;
16179;SDS011;8196;49.428;10.906;2022-09-13T04:32:22;9.57;;;8.68;;
16179;SDS011;8196;49.428;10.906;2022-09-13T04:34:49;8.68;;;7.88;;
16179;SDS011;8196;49.428;10.906;2022-09-13T04:37:16;9.27;;;8.38;;
16179;SDS011;8196;49.428;10.906;2022-09-13T04:39:43;9.43;;;8.55;;
16179;SDS011;8196;49.428;10.906;2022-09-13T04:42:11;9.90;;;8.90;;
16179;SDS011;8196;49.428;10.906;2022-09-13T04:44:38;9.00;;;8.10;;
16179;SDS011;8196;49.428;10.906;2022-09-13T04:47:05;9.45;;;7.60;;
16179;SDS011;8196;49.428;10.906;2022-09-13T04:49:32;8.67;;;7.77;;
16179;SDS011;8196;49.428;10.906;2022-09-13T04:51:59;7.60;;;6.90;;
16179;SDS011;8196;49.428;10.906;2022-09-13T04:54:26;8.25;;;7.30;;
16179;SDS011;8196;49.428;10.906;2022-09-13T04:56:53;8.20;;;7.35;;
16179;SDS011;8196;49.428;10.906;2022-09-13T04:59:20;8.30;;;7.60;;
16179;SDS011;8196;49.428;10.906;2022-09-13T05:01:48;10.02;;;8.38;;
16179;SDS011;8196;49.428;10.906;2022-09-13T05:04:15;10.82;;;9.52;;
16179;SDS011;8196;49.428;10.906;2022-09-13T05:06:42;9.45;;;8.45;;
16179;SDS011;8196;49.428;10.906;2022-09-13T05:09:11;8.45;;;7.45;;
16179;SDS011;8196;49.428;10.906;2022-09-13T05:11:39;7.82;;;7.13;;
16179;SDS011;8196;49.428;10.906;2022-09-13T05:14:08;7.63;;;6.88;;
16179;SDS011;8196;49.428;10.906;2022-09-13T05:16:35;8.27;;;7.47;;
16179;SDS011;8196;49.428;10.906;2022-09-13T05:19:03;7.82;;;7.13;;
16179;SDS011;8196;49.428;10.906;2022-09-13T05:21:29;8.95;;;7.10;;
16179;SDS011;8196;49.428;10.906;2022-09-13T05:23:57;7.72;;;6.93;;
16179;SDS011;8196;49.428;10.906;2022-09-13T05:26:25;7.32;;;6.72;;
16179;SDS011;8196;49.428;10.906;2022-09-13T05:28:54;7.45;;;6.82;;
16179;SDS011;8196;49.428;10.906;2022-09-13T05:31:22;7.00;;;6.40;;
16179;SDS011;8196;49.428;10.906;2022-09-13T05:33:52;7.65;;;6.95;;
16179;SDS011;8196;49.428;10.906;2022-09-13T05:36:19;9.13;;;7.15;;
16179;SDS011;8196;49.428;10.906;2022-09-13T05:38:47;7.07;;;6.45;;
16179;SDS011;8196;49.428;10.906;2022-09-13T05:43:41;7.10;;;6.50;;
16179;SDS011;8196;49.428;10.906;2022-09-13T05:46:12;7.35;;;6.65;;
16179;SDS011;8196;49.428;10.906;2022-09-13T05:48:39;7.00;;;6.30;;
16179;SDS011;8196;49.428;10.906;2022-09-13T05:51:16;7.32;;;6.18;;
16179;SDS011;8196;49.428;10.906;2022-09-13T05:53:44;6.93;;;6.32;;
16179;SDS011;8196;49.428;10.906;2022-09-13T05:56:12;7.20;;;6.60;;
16179;SDS011;8196;49.428;10.906;2022-09-13T05:58:43;7.40;;;6.70;;
16179;SDS011;8196;49.428;10.906;2022-09-13T06:01:11;7.70;;;7.00;;
16179;SDS011;8196;49.428;10.906;2022-09-13T06:03:38;9.07;;;8.15;;
16179;SDS011;8196;49.428;10.906;2022-09-13T06:06:05;9.70;;;8.80;;
16179;SDS011;8196;49.428;10.906;2022-09-13T06:08:33;9.80;;;8.90;;
16179;SDS011;8196;49.428;10.906;2022-09-13T06:11:02;9.38;;;8.40;;
16179;SDS011;8196;49.428;10.906;2022-09-13T06:13:30;10.10;;;8.70;;
16179;SDS011;8196;49.428;10.906;2022-09-13T06:15:58;9.95;;;9.05;;
16179;SDS011;8196;49.428;10.906;2022-09-13T06:18:25;9.98;;;8.98;;
16179;SDS011;8196;49.428;10.906;2022-09-13T06:20:56;9.40;;;8.52;;
16179;SDS011;8196;49.428;10.906;2022-09-13T06:23:25;9.70;;;8.80;;
16179;SDS011;8196;49.428;10.906;2022-09-13T06:26:00;9.07;;;8.07;;
16179;SDS011;8196;49.428;10.906;2022-09-13T06:28:27;8.98;;;8.07;;
16179;SDS011;8196;49.428;10.906;2022-09-13T06:31:00;8.70;;;7.80;;
16179;SDS011;8196;49.428;10.906;2022-09-13T06:33:27;8.47;;;7.67;;
16179;SDS011;8196;49.428;10.906;2022-09-13T06:35:54;8.93;;;8.13;;
16179;SDS011;8196;49.428;10.906;2022-09-13T06:38:25;9.10;;;8.20;;
16179;SDS011;8196;49.428;10.906;2022-09-13T06:41:09;9.53;;;8.53;;
16179;SDS011;8196;49.428;10.906;2022-09-13T06:43:37;9.35;;;8.40;;
16179;SDS011;8196;49.428;10.906;2022-09-13T06:46:06;9.10;;;8.20;;
16179;SDS011;8196;49.428;10.906;2022-09-13T06:48:34;9.15;;;8.25;;
16179;SDS011;8196;49.428;10.906;2022-09-13T06:51:02;9.25;;;8.35;;
16179;SDS011;8196;49.428;10.906;2022-09-13T06:53:29;9.40;;;8.50;;
16179;SDS011;8196;49.428;10.906;2022-09-13T06:56:00;9.95;;;7.78;;
16179;SDS011;8196;49.428;10.906;2022-09-13T06:58:28;8.27;;;7.57;;
16179;SDS011;8196;49.428;10.906;2022-09-13T07:01:04;8.43;;;7.55;;
16179;SDS011;8196;49.428;10.906;2022-09-13T07:03:37;8.33;;;7.63;;
16179;SDS011;8196;49.428;10.906;2022-09-13T07:06:05;8.35;;;7.55;;
16179;SDS011;8196;49.428;10.906;2022-09-13T07:08:32;7.88;;;7.13;;
16179;SDS011;8196;49.428;10.906;2022-09-13T07:10:59;8.15;;;7.35;;
16179;SDS011;8196;49.428;10.906;2022-09-13T07:13:27;8.40;;;7.40;;
16179;SDS011;8196;49.428;10.906;2022-09-13T07:15:54;8.57;;;7.07;;
16179;SDS011;8196;49.428;10.906;2022-09-13T07:18:21;8.13;;;7.32;;
16179;SDS011;8196;49.428;10.906;2022-09-13T07:20:48;7.95;;;7.28;;
16179;SDS011;8196;49.428;10.906;2022-09-13T07:23:16;7.93;;;7.22;;
16179;SDS011;8196;49.428;10.906;2022-09-13T07:25:43;8.17;;;6.73;;
16179;SDS011;8196;49.428;10.906;2022-09-13T07:28:10;7.72;;;7.00;;
16179;SDS011;8196;49.428;10.906;2022-09-13T07:30:37;7.07;;;6.47;;
16179;SDS011;8196;49.428;10.906;2022-09-13T07:33:04;8.20;;;7.10;;
16179;SDS011;8196;49.428;10.906;2022-09-13T07:35:31;7.25;;;6.55;;
16179;SDS011;8196;49.428;10.906;2022-09-13T07:37:58;7.00;;;6.40;;
16179;SDS011;8196;49.428;10.906;2022-09-13T07:40:25;7.63;;;6.60;;
16179;SDS011;8196;49.428;10.906;2022-09-13T07:42:52;7.70;;;7.00;;
16179;SDS011;8196;49.428;10.906;2022-09-13T07:45:20;7.97;;;6.75;;
16179;SDS011;8196;49.428;10.906;2022-09-13T07:47:48;8.25;;;7.40;;
16179;SDS011;8196;49.428;10.906;2022-09-13T07:50:18;8.50;;;7.47;;
16179;SDS011;8196;49.428;10.906;2022-09-13T07:52:45;8.02;;;7.22;;
16179;SDS011;8196;49.428;10.906;2022-09-13T07:55:12;8.80;;;7.90;;
16179;SDS011;8196;49.428;10.906;2022-09-13T07:57:40;8.88;;;8.00;;
16179;SDS011;8196;49.428;10.906;2022-09-13T08:00:07;8.20;;;7.47;;
16179;SDS011;8196;49.428;10.906;2022-09-13T08:02:34;8.40;;;7.47;;
16179;SDS011;8196;49.428;10.906;2022-09-13T08:07:29;7.57;;;6.95;;
16179;SDS011;8196;49.428;10.906;2022-09-13T08:09:58;8.30;;;7.10;;
16179;SDS011;8196;49.428;10.906;2022-09-13T08:12:25;7.37;;;6.63;;
16179;SDS011;8196;49.428;10.906;2022-09-13T08:14:52;7.47;;;6.53;;
16179;SDS011;8196;49.428;10.906;2022-09-13T08:17:19;6.97;;;6.38;;
16179;SDS011;8196;49.428;10.906;2022-09-13T08:19:46;7.35;;;6.55;;
16179;SDS011;8196;49.428;10.906;2022-09-13T08:22:13;7.03;;;5.63;;
16179;SDS011;8196;49.428;10.906;2022-09-13T08:24:40;6.70;;;6.10;;
16179;SDS011;8196;49.428;10.906;2022-09-13T08:27:07;7.80;;;6.13;;
16179;SDS011;8196;49.428;10.906;2022-09-13T08:29:34;8.15;;;6.22;;
16179;SDS011;8196;49.428;10.906;2022-09-13T08:32:01;6.72;;;6.13;;
16179;SDS011;8196;49.428;10.906;2022-09-13T08:34:29;7.85;;;6.53;;
16179;SDS011;8196;49.428;10.906;2022-09-13T08:36:56;7.18;;;6.47;;
16179;SDS011;8196;49.428;10.906;2022-09-13T08:39:24;8.57;;;6.70;;
16179;SDS011;8196;49.428;10.906;2022-09-13T08:42:00;7.53;;;6.82;;
16179;SDS011;8196;49.428;10.906;2022-09-13T08:44:33;7.82;;;6.32;;
16179;SDS011;8196;49.428;10.906;2022-09-13T08:49:31;7.65;;;6.30;;
16179;SDS011;8196;49.428;10.906;2022-09-13T08:52:01;7.82;;;6.20;;
16179;SDS011;8196;49.428;10.906;2022-09-13T08:54:31;6.90;;;6.20;;
16179;SDS011;8196;49.428;10.906;2022-09-13T08:57:08;6.17;;;5.57;;
16179;SDS011;8196;49.428;10.906;2022-09-13T09:04:57;6.40;;;5.38;;
16179;SDS011;8196;49.428;10.906;2022-09-13T09:07:32;6.00;;;4.95;;
16179;SDS011;8196;49.428;10.906;2022-09-13T09:10:03;5.93;;;5.03;;
16179;SDS011;8196;49.428;10.906;2022-09-13T09:15:04;5.53;;;4.32;;
16179;SDS011;8196;49.428;10.906;2022-09-13T09:22:50;6.85;;;4.50;;
16179;SDS011;8196;49.428;10.906;2022-09-13T09:25:18;5.72;;;4.68;;
16179;SDS011;8196;49.428;10.906;2022-09-13T09:27:46;4.15;;;3.75;;
16179;SDS011;8196;49.428;10.906;2022-09-13T09:30:13;3.90;;;3.60;;
16179;SDS011;8196;49.428;10.906;2022-09-13T09:35:35;3.93;;;3.53;;
16179;SDS011;8196;49.428;10.906;2022-09-13T09:40:32;5.03;;;3.53;;
16179;SDS011;8196;49.428;10.906;2022-09-13T09:43:11;4.10;;;3.50;;
16179;SDS011;8196;49.428;10.906;2022-09-13T09:45:41;3.50;;;3.20;;
16179;SDS011;8196;49.428;10.906;2022-09-13T09:48:11;3.33;;;3.00;;
16179;SDS011;8196;49.428;10.906;2022-09-13T09:50:46;3.55;;;3.25;;
16179;SDS011;8196;49.428;10.906;2022-09-13T09:55:44;3.50;;;3.20;;
16179;SDS011;8196;49.428;10.906;2022-09-13T09:58:12;5.17;;;3.50;;
16179;SDS011;8196;49.428;10.906;2022-09-13T10:00:51;3.80;;;3.40;;
16179;SDS011;8196;49.428;10.906;2022-09-13T10:03:20;3.53;;;2.87;;
16179;SDS011;8196;49.428;10.906;2022-09-13T10:05:50;3.42;;;3.13;;
16179;SDS011;8196;49.428;10.906;2022-09-13T10:08:33;3.80;;;3.50;;
16179;SDS011;8196;49.428;10.906;2022-09-13T10:11:02;5.10;;;3.10;;
16179;SDS011;8196;49.428;10.906;2022-09-13T10:13:29;5.10;;;3.35;;
16179;SDS011;8196;49.428;10.906;2022-09-13T10:15:59;3.40;;;3.10;;
16179;SDS011;8196;49.428;10.906;2022-09-13T10:18:27;3.50;;;3.20;;
16179;SDS011;8196;49.428;10.906;2022-09-13T10:23:45;3.28;;;2.97;;
16179;SDS011;8196;49.428;10.906;2022-09-13T10:26:13;4.40;;;3.20;;
16179;SDS011;8196;49.428;10.906;2022-09-13T10:31:11;3.25;;;2.95;;
16179;SDS011;8196;49.428;10.906;2022-09-13T10:36:25;3.03;;;2.75;;
16179;SDS011;8196;49.428;10.906;2022-09-13T10:39:16;3.30;;;3.00;;
16179;SDS011;8196;49.428;10.906;2022-09-13T10:41:49;3.57;;;3.20;;
16179;SDS011;8196;49.428;10.906;2022-09-13T10:46:52;3.00;;;2.80;;
16179;SDS011;8196;49.428;10.906;2022-09-13T10:52:40;3.80;;;2.95;;
16179;SDS011;8196;49.428;10.906;2022-09-13T10:54:49;4.38;;;2.90;;
16179;SDS011;8196;49.428;10.906;2022-09-13T10:57:34;3.10;;;2.85;;
16179;SDS011;8196;49.428;10.906;2022-09-13T11:00:05;3.30;;;3.07;;
16179;SDS011;8196;49.428;10.906;2022-09-13T11:08:00;3.80;;;3.03;;
16179;SDS011;8196;49.428;10.906;2022-09-13T11:31:51;3.28;;;3.03;;
16179;SDS011;8196;49.428;10.906;2022-09-13T11:45:23;3.80;;;2.93;;
16179;SDS011;8196;49.428;10.906;2022-09-13T11:47:56;3.30;;;2.80;;
16179;SDS011;8196;49.428;10.906;2022-09-13T11:50:30;3.55;;;2.90;;
16179;SDS011;8196;49.428;10.906;2022-09-13T11:55:58;4.20;;;3.83;;
16179;SDS011;8196;49.428;10.906;2022-09-13T11:58:28;3.58;;;3.05;;
16179;SDS011;8196;49.428;10.906;2022-09-13T12:00:59;3.57;;;3.13;;
16179;SDS011;8196;49.428;10.906;2022-09-13T12:05:57;4.97;;;3.83;;
16179;SDS011;8196;49.428;10.906;2022-09-13T12:08:27;6.85;;;4.97;;
16179;SDS011;8196;49.428;10.906;2022-09-13T12:10:58;7.35;;;5.07;;
16179;SDS011;8196;49.428;10.906;2022-09-13T12:13:30;5.05;;;3.20;;
16179;SDS011;8196;49.428;10.906;2022-09-13T12:15:59;3.65;;;3.00;;
16179;SDS011;8196;49.428;10.906;2022-09-13T12:18:28;4.10;;;2.85;;
16179;SDS011;8196;49.428;10.906;2022-09-13T12:20:59;5.10;;;2.95;;
16179;SDS011;8196;49.428;10.906;2022-09-13T12:23:30;6.95;;;3.30;;
16179;SDS011;8196;49.428;10.906;2022-09-13T12:26:00;4.07;;;2.80;;
16179;SDS011;8196;49.428;10.906;2022-09-13T12:28:33;3.72;;;3.15;;
16179;SDS011;8196;49.428;10.906;2022-09-13T12:31:03;4.05;;;3.13;;
16179;SDS011;8196;49.428;10.906;2022-09-13T12:33:31;3.20;;;2.90;;
16179;SDS011;8196;49.428;10.906;2022-09-13T12:36:12;3.03;;;2.80;;
16179;SDS011;8196;49.428;10.906;2022-09-13T12:44:19;3.13;;;2.83;;
16179;SDS011;8196;49.428;10.906;2022-09-13T12:52:25;4.05;;;3.13;;
16179;SDS011;8196;49.428;10.906;2022-09-13T12:57:34;4.38;;;3.90;;
16179;SDS011;8196;49.428;10.906;2022-09-13T13:07:52;3.58;;;2.88;;
16179;SDS011;8196;49.428;10.906;2022-09-13T13:10:24;4.45;;;3.05;;
16179;SDS011;8196;49.428;10.906;2022-09-13T13:12:52;4.63;;;3.30;;
16179;SDS011;8196;49.428;10.906;2022-09-13T13:17:48;3.83;;;2.83;;
16179;SDS011;8196;49.428;10.906;2022-09-13T13:23:04;3.33;;;2.88;;
16179;SDS011;8196;49.428;10.906;2022-09-13T13:25:57;3.38;;;2.70;;
16179;SDS011;8196;49.428;10.906;2022-09-13T13:38:54;3.47;;;3.00;;
16179;SDS011;8196;49.428;10.906;2022-09-13T13:41:37;3.40;;;3.10;;
16179;SDS011;8196;49.428;10.906;2022-09-13T13:45:13;5.20;;;3.40;;
16179;SDS011;8196;49.428;10.906;2022-09-13T13:46:54;3.53;;;3.13;;
16179;SDS011;8196;49.428;10.906;2022-09-13T13:50:20;3.50;;;3.05;;
16179;SDS011;8196;49.428;10.906;2022-09-13T13:59:55;3.13;;;2.83;;
16179;SDS011;8196;49.428;10.906;2022-09-13T14:02:25;3.13;;;2.83;;
16179;SDS011;8196;49.428;10.906;2022-09-13T14:12:25;6.13;;;3.20;;
16179;SDS011;8196;49.428;10.906;2022-09-13T14:17:46;3.80;;;2.92;;
16179;SDS011;8196;49.428;10.906;2022-09-13T14:20:10;3.40;;;2.80;;
16179;SDS011;8196;49.428;10.906;2022-09-13T14:22:39;3.47;;;2.88;;
16179;SDS011;8196;49.428;10.906;2022-09-13T14:25:13;3.50;;;2.90;;
16179;SDS011;8196;49.428;10.906;2022-09-13T14:27:41;4.28;;;2.90;;
16179;SDS011;8196;49.428;10.906;2022-09-13T14:30:18;2.95;;;2.75;;
16179;SDS011;8196;49.428;10.906;2022-09-13T14:32:49;4.07;;;3.17;;
16179;SDS011;8196;49.428;10.906;2022-09-13T14:35:33;3.42;;;3.13;;
16179;SDS011;8196;49.428;10.906;2022-09-13T14:38:09;3.08;;;2.65;;
16179;SDS011;8196;49.428;10.906;2022-09-13T14:40:37;3.50;;;2.83;;
16179;SDS011;8196;49.428;10.906;2022-09-13T14:43:21;3.03;;;2.83;;
16179;SDS011;8196;49.428;10.906;2022-09-13T14:45:50;3.80;;;3.15;;
16179;SDS011;8196;49.428;10.906;2022-09-13T14:48:20;4.05;;;3.28;;
16179;SDS011;8196;49.428;10.906;2022-09-13T14:50:56;3.20;;;2.77;;
16179;SDS011;8196;49.428;10.906;2022-09-13T14:53:26;3.35;;;3.05;;
16179;SDS011;8196;49.428;10.906;2022-09-13T14:55:57;3.95;;;3.60;;
16179;SDS011;8196;49.428;10.906;2022-09-13T14:58:27;3.60;;;3.20;;
16179;SDS011;8196;49.428;10.906;2022-09-13T15:00:57;3.80;;;2.60;;
16179;SDS011;8196;49.428;10.906;2022-09-13T15:03:24;5.63;;;4.88;;
16179;SDS011;8196;49.428;10.906;2022-09-13T15:05:53;5.93;;;5.10;;
16179;SDS011;8196;49.428;10.906;2022-09-13T15:10:52;4.50;;;3.72;;
16179;SDS011;8196;49.428;10.906;2022-09-13T15:13:22;4.35;;;3.58;;
16179;SDS011;8196;49.428;10.906;2022-09-13T15:15:50;5.35;;;3.20;;
16179;SDS011;8196;49.428;10.906;2022-09-13T15:20:46;3.38;;;3.08;;
16179;SDS011;8196;49.428;10.906;2022-09-13T15:23:31;4.10;;;2.90;;
16179;SDS011;8196;49.428;10.906;2022-09-13T15:26:08;3.80;;;3.42;;
16179;SDS011;8196;49.428;10.906;2022-09-13T15:31:17;3.67;;;3.00;;
16179;SDS011;8196;49.428;10.906;2022-09-13T15:33:44;2.75;;;2.55;;
16179;SDS011;8196;49.428;10.906;2022-09-13T15:41:30;2.92;;;2.72;;
16179;SDS011;8196;49.428;10.906;2022-09-13T15:43:58;3.50;;;3.20;;
16179;SDS011;8196;49.428;10.906;2022-09-13T15:46:25;3.90;;;3.10;;
16179;SDS011;8196;49.428;10.906;2022-09-13T15:48:53;4.32;;;3.08;;
16179;SDS011;8196;49.428;10.906;2022-09-13T15:51:21;3.37;;;2.93;;
16179;SDS011;8196;49.428;10.906;2022-09-13T15:53:48;3.80;;;3.30;;
16179;SDS011;8196;49.428;10.906;2022-09-13T15:56:18;4.05;;;2.72;;
16179;SDS011;8196;49.428;10.906;2022-09-13T15:58:45;3.72;;;3.20;;
16179;SDS011;8196;49.428;10.906;2022-09-13T16:01:13;3.20;;;2.90;;
16179;SDS011;8196;49.428;10.906;2022-09-13T16:03:41;3.30;;;3.00;;
16179;SDS011;8196;49.428;10.906;2022-09-13T16:06:08;3.30;;;3.00;;
16179;SDS011;8196;49.428;10.906;2022-09-13T16:08:36;5.03;;;3.45;;
16179;SDS011;8196;49.428;10.906;2022-09-13T16:11:03;4.10;;;3.30;;
16179;SDS011;8196;49.428;10.906;2022-09-13T16:13:31;4.45;;;3.60;;
16179;SDS011;8196;49.428;10.906;2022-09-13T16:15:58;3.53;;;3.20;;
16179;SDS011;8196;49.428;10.906;2022-09-13T16:18:25;4.03;;;3.00;;
16179;SDS011;8196;49.428;10.906;2022-09-13T16:20:52;3.30;;;2.92;;
16179;SDS011;8196;49.428;10.906;2022-09-13T16:23:20;3.70;;;3.00;;
16179;SDS011;8196;49.428;10.906;2022-09-13T16:25:48;3.05;;;2.78;;
16179;SDS011;8196;49.428;10.906;2022-09-13T16:28:17;3.20;;;2.90;;
16179;SDS011;8196;49.428;10.906;2022-09-13T16:30:46;4.07;;;3.13;;
16179;SDS011;8196;49.428;10.906;2022-09-13T16:33:13;3.63;;;3.22;;
16179;SDS011;8196;49.428;10.906;2022-09-13T16:35:40;3.80;;;3.40;;
16179;SDS011;8196;49.428;10.906;2022-09-13T16:38:08;6.32;;;3.50;;
16179;SDS011;8196;49.428;10.906;2022-09-13T16:40:39;3.80;;;3.43;;
16179;SDS011;8196;49.428;10.906;2022-09-13T16:43:06;5.10;;;3.38;;
16179;SDS011;8196;49.428;10.906;2022-09-13T16:45:36;4.07;;;3.60;;
16179;SDS011;8196;49.428;10.906;2022-09-13T16:48:04;6.68;;;3.67;;
16179;SDS011;8196;49.428;10.906;2022-09-13T16:50:32;11.50;;;5.00;;
16179;SDS011;8196;49.428;10.906;2022-09-13T16:53:00;6.57;;;3.47;;
16179;SDS011;8196;49.428;10.906;2022-09-13T16:55:27;4.50;;;3.47;;
16179;SDS011;8196;49.428;10.906;2022-09-13T16:57:55;6.47;;;3.47;;
16179;SDS011;8196;49.428;10.906;2022-09-13T17:00:22;4.30;;;3.63;;
16179;SDS011;8196;49.428;10.906;2022-09-13T17:02:54;3.65;;;3.35;;
16179;SDS011;8196;49.428;10.906;2022-09-13T17:05:22;4.50;;;4.10;;
16179;SDS011;8196;49.428;10.906;2022-09-13T17:07:50;4.03;;;3.63;;
16179;SDS011;8196;49.428;10.906;2022-09-13T17:10:17;5.00;;;4.15;;
16179;SDS011;8196;49.428;10.906;2022-09-13T17:12:44;6.47;;;3.77;;
16179;SDS011;8196;49.428;10.906;2022-09-13T17:15:12;6.60;;;5.23;;
16179;SDS011;8196;49.428;10.906;2022-09-13T17:17:39;7.85;;;5.00;;
16179;SDS011;8196;49.428;10.906;2022-09-13T17:20:07;4.78;;;4.38;;
16179;SDS011;8196;49.428;10.906;2022-09-13T17:22:35;5.93;;;3.70;;
16179;SDS011;8196;49.428;10.906;2022-09-13T17:25:03;4.00;;;3.65;;
16179;SDS011;8196;49.428;10.906;2022-09-13T17:27:32;4.60;;;3.88;;
16179;SDS011;8196;49.428;10.906;2022-09-13T17:29:59;4.88;;;3.90;;
16179;SDS011;8196;49.428;10.906;2022-09-13T17:32:27;4.30;;;3.90;;
16179;SDS011;8196;49.428;10.906;2022-09-13T17:34:54;7.88;;;4.30;;
16179;SDS011;8196;49.428;10.906;2022-09-13T17:37:21;4.40;;;4.00;;
16179;SDS011;8196;49.428;10.906;2022-09-13T17:39:48;6.07;;;3.92;;
16179;SDS011;8196;49.428;10.906;2022-09-13T17:42:17;4.30;;;3.90;;
16179;SDS011;8196;49.428;10.906;2022-09-13T17:44:48;5.40;;;3.85;;
16179;SDS011;8196;49.428;10.906;2022-09-13T17:47:15;4.53;;;3.87;;
16179;SDS011;8196;49.428;10.906;2022-09-13T17:49:42;6.43;;;4.20;;
16179;SDS011;8196;49.428;10.906;2022-09-13T17:52:11;7.23;;;4.10;;
16179;SDS011;8196;49.428;10.906;2022-09-13T17:54:39;5.28;;;4.32;;
16179;SDS011;8196;49.428;10.906;2022-09-13T17:59:33;11.23;;;10.23;;
16179;SDS011;8196;49.428;10.906;2022-09-13T18:02:00;6.95;;;6.43;;
16179;SDS011;8196;49.428;10.906;2022-09-13T18:04:27;6.60;;;6.00;;
16179;SDS011;8196;49.428;10.906;2022-09-13T18:06:54;6.30;;;5.10;;
16179;SDS011;8196;49.428;10.906;2022-09-13T18:09:21;5.80;;;5.30;;
16179;SDS011;8196;49.428;10.906;2022-09-13T18:11:49;7.90;;;7.20;;
16179;SDS011;8196;49.428;10.906;2022-09-13T18:14:17;6.90;;;6.20;;
16179;SDS011;8196;49.428;10.906;2022-09-13T18:16:44;5.07;;;4.50;;
16179;SDS011;8196;49.428;10.906;2022-09-13T18:19:11;7.63;;;4.47;;
16179;SDS011;8196;49.428;10.906;2022-09-13T18:21:39;4.57;;;4.03;;
16179;SDS011;8196;49.428;10.906;2022-09-13T18:24:06;5.97;;;4.00;;
16179;SDS011;8196;49.428;10.906;2022-09-13T18:26:34;5.03;;;4.10;;
16179;SDS011;8196;49.428;10.906;2022-09-13T18:29:02;7.68;;;4.43;;
16179;SDS011;8196;49.428;10.906;2022-09-13T18:31:31;5.03;;;4.53;;
16179;SDS011;8196;49.428;10.906;2022-09-13T18:33:59;4.93;;;4.45;;